sensor_id;sensor_type;location;lat;lon;timestamp;P1;durP1;ratioP1;P2;durP2;ratioP2
5979;SDS011;3016;50.308;8.258;2023-02-10T00:02:38;40.10;;;17.33;;
5979;SDS011;3016;50.308;8.258;2023-02-10T00:08:50;48.00;;;18.47;;
5979;SDS011;3016;50.308;8.258;2023-02-10T00:11:55;48.00;;;17.73;;
5979;SDS011;3016;50.308;8.258;2023-02-10T00:14:56;45.87;;;16.57;;
5979;SDS011;3016;50.308;8.258;2023-02-10T00:17:57;45.17;;;16.97;;
5979;SDS011;3016;50.308;8.258;2023-02-10T00:21:09;40.07;;;16.10;;
5979;SDS011;3016;50.308;8.258;2023-02-10T00:24:16;47.27;;;15.07;;
5979;SDS011;3016;50.308;8.258;2023-02-10T00:27:17;47.00;;;18.10;;
5979;SDS011;3016;50.308;8.258;2023-02-10T00:30:23;44.37;;;17.53;;
5979;SDS011;3016;50.308;8.258;2023-02-10T00:33:24;43.60;;;14.50;;
5979;SDS011;3016;50.308;8.258;2023-02-10T00:36:25;38.33;;;15.23;;
5979;SDS011;3016;50.308;8.258;2023-02-10T00:39:26;46.23;;;16.37;;
5979;SDS011;3016;50.308;8.258;2023-02-10T00:42:27;43.17;;;16.10;;
5979;SDS011;3016;50.308;8.258;2023-02-10T00:45:28;37.10;;;15.33;;
5979;SDS011;3016;50.308;8.258;2023-02-10T00:48:30;54.20;;;19.47;;
5979;SDS011;3016;50.308;8.258;2023-02-10T00:51:31;46.00;;;16.30;;
5979;SDS011;3016;50.308;8.258;2023-02-10T00:54:32;46.13;;;16.23;;
5979;SDS011;3016;50.308;8.258;2023-02-10T00:57:34;42.30;;;16.20;;
5979;SDS011;3016;50.308;8.258;2023-02-10T01:00:36;45.20;;;17.17;;
5979;SDS011;3016;50.308;8.258;2023-02-10T01:03:38;40.77;;;16.67;;
5979;SDS011;3016;50.308;8.258;2023-02-10T01:06:40;47.10;;;16.77;;
5979;SDS011;3016;50.308;8.258;2023-02-10T01:09:41;44.53;;;17.30;;
5979;SDS011;3016;50.308;8.258;2023-02-10T01:12:43;49.27;;;18.50;;
5979;SDS011;3016;50.308;8.258;2023-02-10T01:15:45;49.37;;;19.10;;
5979;SDS011;3016;50.308;8.258;2023-02-10T01:18:47;48.10;;;16.30;;
5979;SDS011;3016;50.308;8.258;2023-02-10T01:21:48;45.70;;;17.00;;
5979;SDS011;3016;50.308;8.258;2023-02-10T01:24:49;51.30;;;17.70;;
5979;SDS011;3016;50.308;8.258;2023-02-10T01:27:50;47.93;;;16.57;;
5979;SDS011;3016;50.308;8.258;2023-02-10T01:30:52;44.50;;;18.63;;
5979;SDS011;3016;50.308;8.258;2023-02-10T01:33:53;46.57;;;18.20;;
5979;SDS011;3016;50.308;8.258;2023-02-10T01:36:55;49.70;;;19.90;;
5979;SDS011;3016;50.308;8.258;2023-02-10T01:39:56;51.43;;;20.60;;
5979;SDS011;3016;50.308;8.258;2023-02-10T01:43:01;54.93;;;20.27;;
5979;SDS011;3016;50.308;8.258;2023-02-10T01:46:02;46.10;;;18.50;;
5979;SDS011;3016;50.308;8.258;2023-02-10T01:49:05;48.80;;;21.43;;
5979;SDS011;3016;50.308;8.258;2023-02-10T01:52:18;47.93;;;19.37;;
5979;SDS011;3016;50.308;8.258;2023-02-10T01:55:24;50.07;;;18.70;;
5979;SDS011;3016;50.308;8.258;2023-02-10T01:58:30;44.63;;;18.20;;
5979;SDS011;3016;50.308;8.258;2023-02-10T02:01:36;49.67;;;18.70;;
5979;SDS011;3016;50.308;8.258;2023-02-10T02:05:20;58.37;;;23.23;;
5979;SDS011;3016;50.308;8.258;2023-02-10T02:08:14;50.37;;;20.50;;
5979;SDS011;3016;50.308;8.258;2023-02-10T02:11:30;49.53;;;21.20;;
5979;SDS011;3016;50.308;8.258;2023-02-10T02:14:53;50.77;;;21.27;;
5979;SDS011;3016;50.308;8.258;2023-02-10T02:21:58;48.53;;;19.80;;
5979;SDS011;3016;50.308;8.258;2023-02-10T02:28:50;49.20;;;19.97;;
5979;SDS011;3016;50.308;8.258;2023-02-10T02:32:28;49.30;;;19.90;;
5979;SDS011;3016;50.308;8.258;2023-02-10T02:35:53;47.23;;;19.07;;
5979;SDS011;3016;50.308;8.258;2023-02-10T02:39:24;46.97;;;18.73;;
5979;SDS011;3016;50.308;8.258;2023-02-10T02:42:31;51.10;;;21.10;;
5979;SDS011;3016;50.308;8.258;2023-02-10T02:58:38;53.17;;;21.00;;
5979;SDS011;3016;50.308;8.258;2023-02-10T03:02:26;48.63;;;18.47;;
5979;SDS011;3016;50.308;8.258;2023-02-10T03:05:30;49.20;;;20.13;;
5979;SDS011;3016;50.308;8.258;2023-02-10T03:08:33;49.87;;;20.47;;
5979;SDS011;3016;50.308;8.258;2023-02-10T03:11:38;48.67;;;21.07;;
5979;SDS011;3016;50.308;8.258;2023-02-10T03:14:39;54.80;;;20.20;;
5979;SDS011;3016;50.308;8.258;2023-02-10T03:17:41;47.10;;;20.90;;
5979;SDS011;3016;50.308;8.258;2023-02-10T03:20:43;51.30;;;21.57;;
5979;SDS011;3016;50.308;8.258;2023-02-10T03:23:44;47.73;;;20.23;;
5979;SDS011;3016;50.308;8.258;2023-02-10T03:26:45;48.07;;;21.07;;
5979;SDS011;3016;50.308;8.258;2023-02-10T03:29:47;45.07;;;19.57;;
5979;SDS011;3016;50.308;8.258;2023-02-10T03:32:49;49.07;;;21.47;;
5979;SDS011;3016;50.308;8.258;2023-02-10T03:35:53;50.57;;;22.03;;
5979;SDS011;3016;50.308;8.258;2023-02-10T03:38:54;54.13;;;23.70;;
5979;SDS011;3016;50.308;8.258;2023-02-10T03:41:56;49.50;;;19.27;;
5979;SDS011;3016;50.308;8.258;2023-02-10T03:44:57;46.67;;;21.03;;
5979;SDS011;3016;50.308;8.258;2023-02-10T03:47:59;49.50;;;22.10;;
5979;SDS011;3016;50.308;8.258;2023-02-10T03:51:01;46.50;;;18.90;;
5979;SDS011;3016;50.308;8.258;2023-02-10T03:54:05;49.53;;;21.07;;
5979;SDS011;3016;50.308;8.258;2023-02-10T03:57:06;47.93;;;19.73;;
5979;SDS011;3016;50.308;8.258;2023-02-10T04:00:08;46.70;;;19.13;;
5979;SDS011;3016;50.308;8.258;2023-02-10T04:03:11;53.03;;;21.83;;
5979;SDS011;3016;50.308;8.258;2023-02-10T04:06:12;50.00;;;21.77;;
5979;SDS011;3016;50.308;8.258;2023-02-10T04:09:16;51.03;;;21.40;;
5979;SDS011;3016;50.308;8.258;2023-02-10T04:12:18;49.53;;;22.67;;
5979;SDS011;3016;50.308;8.258;2023-02-10T04:15:19;49.20;;;21.33;;
5979;SDS011;3016;50.308;8.258;2023-02-10T04:18:20;56.17;;;22.93;;
5979;SDS011;3016;50.308;8.258;2023-02-10T04:21:22;47.03;;;20.20;;
5979;SDS011;3016;50.308;8.258;2023-02-10T04:24:24;51.00;;;21.63;;
5979;SDS011;3016;50.308;8.258;2023-02-10T04:27:26;47.30;;;21.07;;
5979;SDS011;3016;50.308;8.258;2023-02-10T04:30:29;55.87;;;21.10;;
5979;SDS011;3016;50.308;8.258;2023-02-10T04:33:30;52.53;;;23.10;;
5979;SDS011;3016;50.308;8.258;2023-02-10T04:36:31;48.83;;;20.53;;
5979;SDS011;3016;50.308;8.258;2023-02-10T04:39:38;53.03;;;21.80;;
5979;SDS011;3016;50.308;8.258;2023-02-10T04:42:40;54.13;;;24.07;;
5979;SDS011;3016;50.308;8.258;2023-02-10T04:45:41;48.67;;;22.10;;
5979;SDS011;3016;50.308;8.258;2023-02-10T04:48:43;55.90;;;23.90;;
5979;SDS011;3016;50.308;8.258;2023-02-10T04:51:47;63.00;;;24.07;;
5979;SDS011;3016;50.308;8.258;2023-02-10T04:54:48;54.17;;;21.10;;
5979;SDS011;3016;50.308;8.258;2023-02-10T04:57:50;49.60;;;22.47;;
5979;SDS011;3016;50.308;8.258;2023-02-10T05:00:51;54.93;;;21.63;;
5979;SDS011;3016;50.308;8.258;2023-02-10T05:03:55;51.20;;;25.17;;
5979;SDS011;3016;50.308;8.258;2023-02-10T05:06:57;53.50;;;23.70;;
5979;SDS011;3016;50.308;8.258;2023-02-10T05:10:00;51.73;;;21.37;;
5979;SDS011;3016;50.308;8.258;2023-02-10T05:13:01;53.57;;;22.40;;
5979;SDS011;3016;50.308;8.258;2023-02-10T05:16:03;53.60;;;25.57;;
5979;SDS011;3016;50.308;8.258;2023-02-10T05:19:05;48.93;;;23.73;;
5979;SDS011;3016;50.308;8.258;2023-02-10T05:22:05;51.20;;;20.93;;
5979;SDS011;3016;50.308;8.258;2023-02-10T05:25:07;56.77;;;23.07;;
5979;SDS011;3016;50.308;8.258;2023-02-10T05:28:09;53.07;;;23.33;;
5979;SDS011;3016;50.308;8.258;2023-02-10T05:31:11;51.57;;;21.50;;
5979;SDS011;3016;50.308;8.258;2023-02-10T05:34:17;50.83;;;22.63;;
5979;SDS011;3016;50.308;8.258;2023-02-10T05:37:18;48.97;;;21.80;;
5979;SDS011;3016;50.308;8.258;2023-02-10T05:43:38;53.77;;;22.10;;
5979;SDS011;3016;50.308;8.258;2023-02-10T05:50:08;51.60;;;21.93;;
5979;SDS011;3016;50.308;8.258;2023-02-10T05:53:09;50.10;;;21.40;;
5979;SDS011;3016;50.308;8.258;2023-02-10T05:56:10;45.80;;;19.33;;
5979;SDS011;3016;50.308;8.258;2023-02-10T05:59:12;47.47;;;20.00;;
5979;SDS011;3016;50.308;8.258;2023-02-10T06:05:44;46.17;;;20.37;;
5979;SDS011;3016;50.308;8.258;2023-02-10T06:08:46;48.53;;;19.23;;
5979;SDS011;3016;50.308;8.258;2023-02-10T06:11:50;50.50;;;19.50;;
5979;SDS011;3016;50.308;8.258;2023-02-10T06:14:55;52.90;;;22.30;;
5979;SDS011;3016;50.308;8.258;2023-02-10T06:17:59;46.97;;;20.90;;
5979;SDS011;3016;50.308;8.258;2023-02-10T06:21:00;45.33;;;19.90;;
5979;SDS011;3016;50.308;8.258;2023-02-10T06:24:01;44.90;;;20.00;;
5979;SDS011;3016;50.308;8.258;2023-02-10T06:27:02;46.90;;;19.70;;
5979;SDS011;3016;50.308;8.258;2023-02-10T06:30:09;46.67;;;20.27;;
5979;SDS011;3016;50.308;8.258;2023-02-10T06:33:11;48.50;;;20.90;;
5979;SDS011;3016;50.308;8.258;2023-02-10T06:36:12;46.47;;;19.90;;
5979;SDS011;3016;50.308;8.258;2023-02-10T06:39:13;45.60;;;20.37;;
5979;SDS011;3016;50.308;8.258;2023-02-10T06:42:14;52.67;;;19.50;;
5979;SDS011;3016;50.308;8.258;2023-02-10T06:45:15;47.00;;;20.20;;
5979;SDS011;3016;50.308;8.258;2023-02-10T06:48:17;45.53;;;17.60;;
5979;SDS011;3016;50.308;8.258;2023-02-10T06:51:18;44.70;;;20.40;;
5979;SDS011;3016;50.308;8.258;2023-02-10T06:54:19;47.33;;;20.70;;
5979;SDS011;3016;50.308;8.258;2023-02-10T06:57:20;46.77;;;19.17;;
5979;SDS011;3016;50.308;8.258;2023-02-10T07:00:21;48.50;;;21.20;;
5979;SDS011;3016;50.308;8.258;2023-02-10T07:03:22;47.03;;;19.50;;
5979;SDS011;3016;50.308;8.258;2023-02-10T07:06:23;50.23;;;19.97;;
5979;SDS011;3016;50.308;8.258;2023-02-10T07:09:24;46.70;;;20.40;;
5979;SDS011;3016;50.308;8.258;2023-02-10T07:12:25;49.33;;;20.97;;
5979;SDS011;3016;50.308;8.258;2023-02-10T07:15:26;47.20;;;20.47;;
5979;SDS011;3016;50.308;8.258;2023-02-10T07:18:29;48.10;;;20.73;;
5979;SDS011;3016;50.308;8.258;2023-02-10T07:21:30;43.93;;;20.73;;
5979;SDS011;3016;50.308;8.258;2023-02-10T07:24:31;48.50;;;21.20;;
5979;SDS011;3016;50.308;8.258;2023-02-10T07:27:33;45.50;;;20.20;;
5979;SDS011;3016;50.308;8.258;2023-02-10T07:30:33;46.97;;;23.20;;
5979;SDS011;3016;50.308;8.258;2023-02-10T07:33:35;53.30;;;23.53;;
5979;SDS011;3016;50.308;8.258;2023-02-10T07:36:36;49.13;;;20.17;;
5979;SDS011;3016;50.308;8.258;2023-02-10T07:39:37;57.57;;;23.10;;
5979;SDS011;3016;50.308;8.258;2023-02-10T07:42:41;57.03;;;24.97;;
5979;SDS011;3016;50.308;8.258;2023-02-10T07:45:43;62.93;;;26.33;;
5979;SDS011;3016;50.308;8.258;2023-02-10T07:48:45;57.00;;;25.60;;
5979;SDS011;3016;50.308;8.258;2023-02-10T07:51:46;56.20;;;26.70;;
5979;SDS011;3016;50.308;8.258;2023-02-10T07:54:47;54.63;;;25.77;;
5979;SDS011;3016;50.308;8.258;2023-02-10T07:57:50;53.23;;;23.20;;
5979;SDS011;3016;50.308;8.258;2023-02-10T08:00:52;59.37;;;28.30;;
5979;SDS011;3016;50.308;8.258;2023-02-10T08:03:53;61.80;;;28.20;;
5979;SDS011;3016;50.308;8.258;2023-02-10T08:06:55;60.03;;;28.03;;
5979;SDS011;3016;50.308;8.258;2023-02-10T08:09:57;61.53;;;28.20;;
5979;SDS011;3016;50.308;8.258;2023-02-10T08:12:59;63.00;;;28.93;;
5979;SDS011;3016;50.308;8.258;2023-02-10T08:16:03;74.23;;;31.50;;
5979;SDS011;3016;50.308;8.258;2023-02-10T08:19:05;68.37;;;29.70;;
5979;SDS011;3016;50.308;8.258;2023-02-10T08:22:06;74.83;;;30.87;;
5979;SDS011;3016;50.308;8.258;2023-02-10T08:25:17;58.97;;;27.77;;
5979;SDS011;3016;50.308;8.258;2023-02-10T08:28:18;73.57;;;31.00;;
5979;SDS011;3016;50.308;8.258;2023-02-10T08:31:40;73.67;;;34.30;;
5979;SDS011;3016;50.308;8.258;2023-02-10T08:34:59;70.87;;;32.50;;
5979;SDS011;3016;50.308;8.258;2023-02-10T08:38:09;62.03;;;30.43;;
5979;SDS011;3016;50.308;8.258;2023-02-10T08:41:16;74.83;;;31.57;;
5979;SDS011;3016;50.308;8.258;2023-02-10T08:47:50;69.57;;;33.23;;
5979;SDS011;3016;50.308;8.258;2023-02-10T08:54:23;74.17;;;30.80;;
5979;SDS011;3016;50.308;8.258;2023-02-10T08:57:39;69.13;;;31.67;;
5979;SDS011;3016;50.308;8.258;2023-02-10T09:01:09;69.77;;;33.07;;
5979;SDS011;3016;50.308;8.258;2023-02-10T09:04:34;80.37;;;34.80;;
5979;SDS011;3016;50.308;8.258;2023-02-10T09:07:36;76.40;;;32.43;;
5979;SDS011;3016;50.308;8.258;2023-02-10T09:10:41;67.90;;;33.60;;
5979;SDS011;3016;50.308;8.258;2023-02-10T09:13:43;80.80;;;31.47;;
5979;SDS011;3016;50.308;8.258;2023-02-10T09:16:44;78.17;;;32.83;;
5979;SDS011;3016;50.308;8.258;2023-02-10T09:19:46;82.90;;;31.40;;
5979;SDS011;3016;50.308;8.258;2023-02-10T09:22:47;83.53;;;35.67;;
5979;SDS011;3016;50.308;8.258;2023-02-10T09:25:56;84.60;;;36.17;;
5979;SDS011;3016;50.308;8.258;2023-02-10T09:28:59;72.70;;;34.20;;
5979;SDS011;3016;50.308;8.258;2023-02-10T09:32:00;75.73;;;32.53;;
5979;SDS011;3016;50.308;8.258;2023-02-10T09:35:01;76.70;;;32.07;;
5979;SDS011;3016;50.308;8.258;2023-02-10T09:38:02;90.43;;;33.27;;
5979;SDS011;3016;50.308;8.258;2023-02-10T09:44:55;74.93;;;32.17;;
5979;SDS011;3016;50.308;8.258;2023-02-10T09:51:28;72.50;;;29.07;;
5979;SDS011;3016;50.308;8.258;2023-02-10T09:55:15;70.80;;;30.80;;
5979;SDS011;3016;50.308;8.258;2023-02-10T09:58:39;73.03;;;27.37;;
5979;SDS011;3016;50.308;8.258;2023-02-10T10:01:57;68.87;;;28.60;;
5979;SDS011;3016;50.308;8.258;2023-02-10T10:05:03;80.27;;;30.40;;
5979;SDS011;3016;50.308;8.258;2023-02-10T10:11:49;74.53;;;31.17;;
5979;SDS011;3016;50.308;8.258;2023-02-10T10:14:54;83.40;;;29.87;;
5979;SDS011;3016;50.308;8.258;2023-02-10T10:21:13;81.40;;;31.47;;
5979;SDS011;3016;50.308;8.258;2023-02-10T10:28:28;71.57;;;31.17;;
5979;SDS011;3016;50.308;8.258;2023-02-10T10:32:15;68.30;;;30.27;;
5979;SDS011;3016;50.308;8.258;2023-02-10T10:35:35;74.70;;;29.17;;
5979;SDS011;3016;50.308;8.258;2023-02-10T10:38:43;64.50;;;28.57;;
5979;SDS011;3016;50.308;8.258;2023-02-10T10:41:50;71.83;;;28.20;;
5979;SDS011;3016;50.308;8.258;2023-02-10T10:44:54;78.80;;;30.83;;
5979;SDS011;3016;50.308;8.258;2023-02-10T10:48:14;72.57;;;26.80;;
5979;SDS011;3016;50.308;8.258;2023-02-10T10:51:21;70.33;;;29.70;;
5979;SDS011;3016;50.308;8.258;2023-02-10T10:54:23;68.53;;;29.00;;
5979;SDS011;3016;50.308;8.258;2023-02-10T10:57:24;66.90;;;27.13;;
5979;SDS011;3016;50.308;8.258;2023-02-10T11:00:27;77.00;;;31.73;;
5979;SDS011;3016;50.308;8.258;2023-02-10T11:03:29;64.30;;;26.53;;
5979;SDS011;3016;50.308;8.258;2023-02-10T11:06:32;68.00;;;27.33;;
5979;SDS011;3016;50.308;8.258;2023-02-10T11:09:36;73.63;;;29.50;;
5979;SDS011;3016;50.308;8.258;2023-02-10T11:12:41;66.23;;;28.60;;
5979;SDS011;3016;50.308;8.258;2023-02-10T11:15:45;67.10;;;28.80;;
5979;SDS011;3016;50.308;8.258;2023-02-10T11:18:55;62.50;;;25.13;;
5979;SDS011;3016;50.308;8.258;2023-02-10T11:21:59;68.40;;;25.60;;
5979;SDS011;3016;50.308;8.258;2023-02-10T11:25:02;70.37;;;27.37;;
5979;SDS011;3016;50.308;8.258;2023-02-10T11:28:36;58.37;;;25.60;;
5979;SDS011;3016;50.308;8.258;2023-02-10T11:31:37;60.40;;;22.80;;
5979;SDS011;3016;50.308;8.258;2023-02-10T11:34:38;60.33;;;23.57;;
5979;SDS011;3016;50.308;8.258;2023-02-10T11:37:44;55.73;;;25.30;;
5979;SDS011;3016;50.308;8.258;2023-02-10T11:40:56;60.27;;;22.60;;
5979;SDS011;3016;50.308;8.258;2023-02-10T11:44:14;60.47;;;23.47;;
5979;SDS011;3016;50.308;8.258;2023-02-10T11:47:30;57.73;;;21.60;;
5979;SDS011;3016;50.308;8.258;2023-02-10T11:50:33;59.93;;;23.57;;
5979;SDS011;3016;50.308;8.258;2023-02-10T11:53:36;65.60;;;25.23;;
5979;SDS011;3016;50.308;8.258;2023-02-10T12:00:38;56.07;;;25.40;;
5979;SDS011;3016;50.308;8.258;2023-02-10T12:04:28;56.10;;;23.70;;
5979;SDS011;3016;50.308;8.258;2023-02-10T12:11:42;69.47;;;25.80;;
5979;SDS011;3016;50.308;8.258;2023-02-10T12:18:53;56.53;;;24.20;;
5979;SDS011;3016;50.308;8.258;2023-02-10T12:29:59;53.63;;;23.23;;
5979;SDS011;3016;50.308;8.258;2023-02-10T12:47:33;50.53;;;20.13;;
5979;SDS011;3016;50.308;8.258;2023-02-10T12:55:16;50.23;;;20.93;;
5979;SDS011;3016;50.308;8.258;2023-02-10T12:58:35;56.50;;;20.90;;
5979;SDS011;3016;50.308;8.258;2023-02-10T13:01:59;40.70;;;17.17;;
5979;SDS011;3016;50.308;8.258;2023-02-10T13:05:17;44.50;;;17.23;;
5979;SDS011;3016;50.308;8.258;2023-02-10T13:08:32;41.37;;;16.03;;
5979;SDS011;3016;50.308;8.258;2023-02-10T13:12:33;42.13;;;17.50;;
5979;SDS011;3016;50.308;8.258;2023-02-10T13:15:43;44.97;;;18.13;;
5979;SDS011;3016;50.308;8.258;2023-02-10T13:19:03;49.60;;;16.90;;
5979;SDS011;3016;50.308;8.258;2023-02-10T13:22:18;44.20;;;18.80;;
5979;SDS011;3016;50.308;8.258;2023-02-10T13:29:40;47.40;;;17.10;;
5979;SDS011;3016;50.308;8.258;2023-02-10T13:32:57;43.37;;;16.77;;
5979;SDS011;3016;50.308;8.258;2023-02-10T13:36:17;46.97;;;18.23;;
5979;SDS011;3016;50.308;8.258;2023-02-10T13:39:31;45.40;;;16.67;;
5979;SDS011;3016;50.308;8.258;2023-02-10T13:42:37;40.53;;;15.50;;
5979;SDS011;3016;50.308;8.258;2023-02-10T13:46:05;44.23;;;17.03;;
5979;SDS011;3016;50.308;8.258;2023-02-10T13:49:19;41.97;;;16.43;;
5979;SDS011;3016;50.308;8.258;2023-02-10T13:52:21;43.93;;;16.93;;
5979;SDS011;3016;50.308;8.258;2023-02-10T13:55:37;44.87;;;17.47;;
5979;SDS011;3016;50.308;8.258;2023-02-10T13:58:58;40.60;;;15.90;;
5979;SDS011;3016;50.308;8.258;2023-02-10T14:02:35;39.60;;;15.43;;
5979;SDS011;3016;50.308;8.258;2023-02-10T14:05:38;49.57;;;18.70;;
5979;SDS011;3016;50.308;8.258;2023-02-10T14:08:52;45.20;;;15.37;;
5979;SDS011;3016;50.308;8.258;2023-02-10T14:12:26;53.23;;;17.53;;
5979;SDS011;3016;50.308;8.258;2023-02-10T14:15:30;49.57;;;17.13;;
5979;SDS011;3016;50.308;8.258;2023-02-10T14:18:36;43.70;;;16.50;;
5979;SDS011;3016;50.308;8.258;2023-02-10T14:21:41;38.13;;;15.57;;
5979;SDS011;3016;50.308;8.258;2023-02-10T14:24:46;43.57;;;17.87;;
5979;SDS011;3016;50.308;8.258;2023-02-10T14:27:55;61.70;;;18.50;;
5979;SDS011;3016;50.308;8.258;2023-02-10T14:30:59;40.87;;;16.03;;
5979;SDS011;3016;50.308;8.258;2023-02-10T14:34:17;43.40;;;17.13;;
5979;SDS011;3016;50.308;8.258;2023-02-10T14:37:23;47.10;;;17.30;;
5979;SDS011;3016;50.308;8.258;2023-02-10T14:40:28;43.40;;;15.33;;
5979;SDS011;3016;50.308;8.258;2023-02-10T14:43:42;42.53;;;17.60;;
5979;SDS011;3016;50.308;8.258;2023-02-10T14:54:58;41.30;;;14.83;;
5979;SDS011;3016;50.308;8.258;2023-02-10T14:58:21;36.57;;;12.57;;
5979;SDS011;3016;50.308;8.258;2023-02-10T15:04:26;42.17;;;14.23;;
5979;SDS011;3016;50.308;8.258;2023-02-10T15:07:31;40.63;;;13.60;;
5979;SDS011;3016;50.308;8.258;2023-02-10T15:10:43;42.37;;;15.90;;
5979;SDS011;3016;50.308;8.258;2023-02-10T15:13:49;42.43;;;14.80;;
5979;SDS011;3016;50.308;8.258;2023-02-10T15:16:57;43.30;;;16.23;;
5979;SDS011;3016;50.308;8.258;2023-02-10T15:20:16;43.20;;;14.47;;
5979;SDS011;3016;50.308;8.258;2023-02-10T15:23:27;42.47;;;16.57;;
5979;SDS011;3016;50.308;8.258;2023-02-10T15:26:31;40.87;;;16.23;;
5979;SDS011;3016;50.308;8.258;2023-02-10T15:29:41;43.27;;;13.83;;
5979;SDS011;3016;50.308;8.258;2023-02-10T15:32:50;37.80;;;14.60;;
5979;SDS011;3016;50.308;8.258;2023-02-10T15:39:28;44.60;;;15.70;;
5979;SDS011;3016;50.308;8.258;2023-02-10T15:42:43;48.87;;;15.53;;
5979;SDS011;3016;50.308;8.258;2023-02-10T15:46:21;40.53;;;13.17;;
5979;SDS011;3016;50.308;8.258;2023-02-10T15:49:25;41.63;;;13.10;;
5979;SDS011;3016;50.308;8.258;2023-02-10T15:52:32;39.50;;;13.57;;
5979;SDS011;3016;50.308;8.258;2023-02-10T15:58:49;39.07;;;13.70;;
5979;SDS011;3016;50.308;8.258;2023-02-10T16:06:12;40.37;;;13.30;;
5979;SDS011;3016;50.308;8.258;2023-02-10T16:09:14;50.20;;;15.67;;
5979;SDS011;3016;50.308;8.258;2023-02-10T16:12:16;39.10;;;14.80;;
5979;SDS011;3016;50.308;8.258;2023-02-10T16:15:21;34.60;;;12.63;;
5979;SDS011;3016;50.308;8.258;2023-02-10T16:18:24;37.13;;;12.60;;
5979;SDS011;3016;50.308;8.258;2023-02-10T16:24:40;39.07;;;14.40;;
5979;SDS011;3016;50.308;8.258;2023-02-10T16:27:53;35.13;;;12.57;;
5979;SDS011;3016;50.308;8.258;2023-02-10T16:31:09;44.30;;;19.20;;
5979;SDS011;3016;50.308;8.258;2023-02-10T19:06:58;37.70;;;15.70;;
5979;SDS011;3016;50.308;8.258;2023-02-10T19:13:09;48.33;;;17.87;;
5979;SDS011;3016;50.308;8.258;2023-02-10T19:20:30;46.30;;;20.20;;
5979;SDS011;3016;50.308;8.258;2023-02-10T19:26:59;53.13;;;24.30;;
5979;SDS011;3016;50.308;8.258;2023-02-10T19:30:04;46.37;;;20.30;;
5979;SDS011;3016;50.308;8.258;2023-02-10T19:33:10;69.57;;;23.20;;
5979;SDS011;3016;50.308;8.258;2023-02-10T19:36:12;50.03;;;23.30;;
5979;SDS011;3016;50.308;8.258;2023-02-10T19:39:17;56.03;;;24.10;;
5979;SDS011;3016;50.308;8.258;2023-02-10T19:42:19;51.10;;;21.83;;
5979;SDS011;3016;50.308;8.258;2023-02-10T19:45:20;52.60;;;22.00;;
5979;SDS011;3016;50.308;8.258;2023-02-10T19:48:22;50.83;;;21.87;;
5979;SDS011;3016;50.308;8.258;2023-02-10T19:51:24;59.03;;;28.80;;
5979;SDS011;3016;50.308;8.258;2023-02-10T19:54:28;57.30;;;26.03;;
5979;SDS011;3016;50.308;8.258;2023-02-10T20:04:55;60.03;;;28.60;;
5979;SDS011;3016;50.308;8.258;2023-02-10T20:11:20;46.20;;;20.33;;
5979;SDS011;3016;50.308;8.258;2023-02-10T20:14:22;52.93;;;20.67;;
5979;SDS011;3016;50.308;8.258;2023-02-10T20:17:26;51.73;;;22.30;;
5979;SDS011;3016;50.308;8.258;2023-02-10T20:20:30;49.97;;;21.40;;
5979;SDS011;3016;50.308;8.258;2023-02-10T20:23:34;54.63;;;23.10;;
5979;SDS011;3016;50.308;8.258;2023-02-10T20:26:48;55.53;;;23.30;;
5979;SDS011;3016;50.308;8.258;2023-02-10T20:29:51;60.60;;;26.17;;
5979;SDS011;3016;50.308;8.258;2023-02-10T22:13:40;85.23;;;33.03;;
5979;SDS011;3016;50.308;8.258;2023-02-10T22:16:51;60.33;;;24.70;;
5979;SDS011;3016;50.308;8.258;2023-02-10T22:19:58;58.17;;;22.60;;
5979;SDS011;3016;50.308;8.258;2023-02-10T22:23:01;61.23;;;24.67;;
5979;SDS011;3016;50.308;8.258;2023-02-10T22:26:03;63.20;;;26.07;;
5979;SDS011;3016;50.308;8.258;2023-02-10T22:29:17;96.80;;;38.40;;
5979;SDS011;3016;50.308;8.258;2023-02-10T22:32:20;57.07;;;22.90;;
5979;SDS011;3016;50.308;8.258;2023-02-10T22:35:25;61.77;;;24.60;;
5979;SDS011;3016;50.308;8.258;2023-02-10T22:38:28;62.13;;;25.30;;
5979;SDS011;3016;50.308;8.258;2023-02-10T22:41:33;61.80;;;26.10;;
5979;SDS011;3016;50.308;8.258;2023-02-10T22:44:36;60.60;;;27.70;;
5979;SDS011;3016;50.308;8.258;2023-02-10T22:47:37;71.47;;;31.07;;
5979;SDS011;3016;50.308;8.258;2023-02-10T22:50:39;110.33;;;48.60;;
5979;SDS011;3016;50.308;8.258;2023-02-10T22:53:41;77.70;;;34.13;;
5979;SDS011;3016;50.308;8.258;2023-02-10T22:56:43;60.47;;;27.13;;
5979;SDS011;3016;50.308;8.258;2023-02-10T22:59:50;64.57;;;22.77;;
5979;SDS011;3016;50.308;8.258;2023-02-10T23:02:52;51.30;;;21.63;;
5979;SDS011;3016;50.308;8.258;2023-02-10T23:05:58;57.00;;;23.80;;
5979;SDS011;3016;50.308;8.258;2023-02-10T23:08:59;51.67;;;22.13;;
5979;SDS011;3016;50.308;8.258;2023-02-10T23:12:00;51.50;;;23.30;;
5979;SDS011;3016;50.308;8.258;2023-02-10T23:15:03;55.53;;;22.57;;
5979;SDS011;3016;50.308;8.258;2023-02-10T23:18:06;46.93;;;18.67;;
5979;SDS011;3016;50.308;8.258;2023-02-10T23:21:09;53.80;;;20.20;;
5979;SDS011;3016;50.308;8.258;2023-02-10T23:24:13;49.53;;;22.20;;
5979;SDS011;3016;50.308;8.258;2023-02-10T23:27:18;47.50;;;19.90;;
5979;SDS011;3016;50.308;8.258;2023-02-10T23:30:19;57.97;;;22.97;;
5979;SDS011;3016;50.308;8.258;2023-02-10T23:33:20;54.40;;;22.60;;
5979;SDS011;3016;50.308;8.258;2023-02-10T23:36:21;52.33;;;21.30;;
5979;SDS011;3016;50.308;8.258;2023-02-10T23:39:23;47.37;;;20.93;;
5979;SDS011;3016;50.308;8.258;2023-02-10T23:42:24;52.33;;;21.17;;
5979;SDS011;3016;50.308;8.258;2023-02-10T23:45:27;56.20;;;22.00;;
5979;SDS011;3016;50.308;8.258;2023-02-10T23:48:29;58.97;;;22.10;;
5979;SDS011;3016;50.308;8.258;2023-02-10T23:51:30;50.30;;;22.20;;
5979;SDS011;3016;50.308;8.258;2023-02-10T23:54:31;55.47;;;22.70;;
5979;SDS011;3016;50.308;8.258;2023-02-10T23:57:38;53.60;;;19.27;;
